createdAt,value
2022-09-20T00:01:21.731Z,53.91
2022-09-20T00:03:51.656Z,53.88
2022-09-20T00:06:21.602Z,53.94
2022-09-20T00:08:49.837Z,54.42
2022-09-20T00:11:22.750Z,54.23
2022-09-20T00:13:53.257Z,54.50
2022-09-20T00:16:23.284Z,53.59
2022-09-20T00:18:52.834Z,53.94
2022-09-20T00:21:22.360Z,53.86
2022-09-20T00:23:51.779Z,53.98
2022-09-20T00:26:20.463Z,54.25
2022-09-20T00:28:48.801Z,53.78
2022-09-20T00:31:17.638Z,53.86
2022-09-20T00:34:04.853Z,53.97
2022-09-20T00:36:33.223Z,54.75
2022-09-20T00:39:02.525Z,55.44
2022-09-20T00:41:31.714Z,54.53
2022-09-20T00:44:00.618Z,54.04
2022-09-20T00:46:28.873Z,53.97
2022-09-20T00:49:01.665Z,54.22
2022-09-20T00:51:33.660Z,54.46
2022-09-20T00:54:04.347Z,54.55
2022-09-20T00:56:38.371Z,54.49
2022-09-20T00:59:26.900Z,54.44
2022-09-20T01:02:05.427Z,54.46
2022-09-20T01:04:35.029Z,54.33
2022-09-20T01:07:05.019Z,54.83
2022-09-20T01:09:33.411Z,54.54
2022-09-20T01:12:05.008Z,54.51
2022-09-20T01:14:33.903Z,54.75
2022-09-20T01:17:04.147Z,55.07
2022-09-20T01:19:35.748Z,54.89
2022-09-20T01:22:07.061Z,55.08
2022-09-20T01:24:53.450Z,54.57
2022-09-20T01:27:34.094Z,54.74
2022-09-20T01:30:07.682Z,54.58
2022-09-20T01:32:44.222Z,54.67
2022-09-20T01:35:14.251Z,54.71
2022-09-20T01:37:53.363Z,54.63
2022-09-20T01:40:31.031Z,54.78
2022-09-20T01:43:08.399Z,55.17
2022-09-20T01:45:41.452Z,54.51
2022-09-20T01:48:18.998Z,54.37
2022-09-20T01:51:02.701Z,54.69
2022-09-20T01:53:50.111Z,54.71
2022-09-20T01:56:36.849Z,55.21
2022-09-20T01:59:25.017Z,54.83
2022-09-20T02:01:53.562Z,54.97
2022-09-20T02:04:24.755Z,56.34
2022-09-20T02:07:07.547Z,55.64
2022-09-20T02:09:56.989Z,55.26
2022-09-20T02:12:28.535Z,54.88
2022-09-20T02:15:25.348Z,55.28
2022-09-20T02:18:12.362Z,54.71
2022-09-20T02:21:13.329Z,55.39
2022-09-20T02:23:53.638Z,54.72
2022-09-20T02:26:38.001Z,54.53
2022-09-20T02:29:25.156Z,54.31
2022-09-20T02:32:00.621Z,55.08
2022-09-20T02:34:31.981Z,54.88
2022-09-20T02:37:25.478Z,54.84
2022-09-20T02:39:53.859Z,54.94
2022-09-20T02:42:30.859Z,54.16
2022-09-20T02:45:04.087Z,55.29
2022-09-20T02:47:35.512Z,55.22
2022-09-20T02:50:22.611Z,54.70
2022-09-20T02:53:00.668Z,55.14
2022-09-20T02:55:53.651Z,55.05
2022-09-20T02:58:28.115Z,54.94
2022-09-20T03:01:13.137Z,55.23
2022-09-20T03:03:56.756Z,55.08
2022-09-20T03:06:49.465Z,54.93
2022-09-20T03:09:36.456Z,54.65
2022-09-20T03:12:34.229Z,54.58
2022-09-20T03:15:08.263Z,54.71
2022-09-20T03:17:52.684Z,54.76
2022-09-20T03:20:28.253Z,54.36
2022-09-20T03:22:56.539Z,53.81
2022-09-20T03:25:24.797Z,53.34
2022-09-20T03:28:10.775Z,54.29
2022-09-20T03:30:44.209Z,54.29
2022-09-20T03:33:12.566Z,54.58
2022-09-20T03:35:40.772Z,54.70
2022-09-20T03:38:12.137Z,54.31
2022-09-20T03:40:52.801Z,53.92
2022-09-20T03:43:29.927Z,54.12
2022-09-20T03:46:21.371Z,54.00
2022-09-20T03:48:52.799Z,54.06
2022-09-20T03:51:22.560Z,54.28
2022-09-20T03:53:57.043Z,54.22
2022-09-20T03:56:39.473Z,54.30
2022-09-20T03:59:17.180Z,54.99
2022-09-20T04:01:56.878Z,54.69
2022-09-20T04:04:33.091Z,54.95
2022-09-20T04:07:01.382Z,55.17
2022-09-20T04:09:42.071Z,55.27
2022-09-20T04:12:28.184Z,56.76
2022-09-20T04:15:05.915Z,56.34
2022-09-20T04:17:34.229Z,55.77
2022-09-20T04:20:05.795Z,55.44
2022-09-20T04:22:34.895Z,55.34
2022-09-20T04:25:27.664Z,54.99
2022-09-20T04:28:09.373Z,54.75
2022-09-20T04:30:43.929Z,54.98
2022-09-20T04:33:20.665Z,54.28
2022-09-20T04:36:17.084Z,54.21
2022-09-20T04:38:48.575Z,53.46
2022-09-20T04:41:21.916Z,52.92
2022-09-20T04:43:53.674Z,53.33
2022-09-20T04:46:22.135Z,54.21
2022-09-20T04:49:10.201Z,54.10
2022-09-20T04:51:41.556Z,53.55
2022-09-20T04:54:28.799Z,53.33
2022-09-20T04:57:10.453Z,53.77
2022-09-20T05:00:02.409Z,53.54
2022-09-20T05:02:50.421Z,53.95
2022-09-20T05:05:18.781Z,54.65
2022-09-20T05:08:06.638Z,54.76
2022-09-20T05:10:35.494Z,53.91
2022-09-20T05:13:05.338Z,54.56
2022-09-20T05:15:36.259Z,53.91
2022-09-20T05:18:10.825Z,53.77
2022-09-20T05:20:48.480Z,53.97
2022-09-20T05:23:25.522Z,54.15
2022-09-20T05:26:11.451Z,54.06
2022-09-20T05:28:45.897Z,53.94
2022-09-20T05:31:28.228Z,54.96
2022-09-20T05:33:56.645Z,54.90
2022-09-20T05:36:43.908Z,54.64
2022-09-20T05:39:15.380Z,54.50
2022-09-20T05:41:47.831Z,54.69
2022-09-20T05:44:27.462Z,54.46
2022-09-20T05:47:00.098Z,54.91
2022-09-20T05:49:50.249Z,54.89
2022-09-20T05:52:18.720Z,54.42
2022-09-20T05:55:11.527Z,54.30
2022-09-20T05:57:45.619Z,54.34
2022-09-20T06:00:22.283Z,54.03
2022-09-20T06:03:00.105Z,53.80
2022-09-20T06:05:28.791Z,53.79
2022-09-20T06:08:15.995Z,53.88
2022-09-20T06:11:03.393Z,53.92
2022-09-20T06:13:45.316Z,54.04
2022-09-20T06:16:23.709Z,53.98
2022-09-20T06:19:01.915Z,53.63
2022-09-20T06:21:54.254Z,54.37
2022-09-20T06:24:23.021Z,53.85
2022-09-20T06:26:54.517Z,53.60
2022-09-20T06:29:29.272Z,53.42
2022-09-20T06:31:57.842Z,53.44
2022-09-20T06:34:27.798Z,53.68
2022-09-20T06:37:25.066Z,54.05
2022-09-20T06:40:32.090Z,54.31
2022-09-20T06:43:00.722Z,53.74
2022-09-20T06:45:29.556Z,55.48
2022-09-20T06:48:01.977Z,54.52
2022-09-20T06:50:30.900Z,54.55
2022-09-20T06:52:59.182Z,55.27
2022-09-20T06:55:30.662Z,55.71
2022-09-20T06:58:00.979Z,56.59
2022-09-20T07:00:30.243Z,55.85
2022-09-20T07:02:58.535Z,56.31
2022-09-20T07:05:26.872Z,56.26
2022-09-20T07:07:58.930Z,56.56
2022-09-20T07:10:30.428Z,56.74
2022-09-20T07:13:00.405Z,56.29
2022-09-20T07:15:30.588Z,55.94
2022-09-20T07:18:00.157Z,54.77
2022-09-20T07:20:28.938Z,54.00
2022-09-20T07:22:57.346Z,53.79
2022-09-20T07:25:27.450Z,53.84
2022-09-20T07:27:56.079Z,54.20
2022-09-20T07:30:26.459Z,53.81
2022-09-20T07:32:54.902Z,53.25
2022-09-20T07:35:23.466Z,52.54
2022-09-20T07:37:56.463Z,52.83
2022-09-20T07:40:25.641Z,52.81
2022-09-20T07:42:56.384Z,52.90
2022-09-20T07:45:25.219Z,52.48
2022-09-20T07:47:54.567Z,52.84
2022-09-20T07:50:22.851Z,52.68
2022-09-20T07:52:51.191Z,52.29
2022-09-20T07:55:20.469Z,52.14
2022-09-20T07:57:48.770Z,52.31
2022-09-20T08:00:17.705Z,51.64
2022-09-20T08:02:46.061Z,51.77
2022-09-20T08:05:14.468Z,51.64
2022-09-20T08:07:42.901Z,51.22
2022-09-20T08:10:11.196Z,50.80
2022-09-20T08:15:29.228Z,50.57
2022-09-20T08:17:57.562Z,50.25
2022-09-20T08:20:26.820Z,50.40
2022-09-20T08:23:19.403Z,50.80
2022-09-20T08:25:44.100Z,50.84
2022-09-20T08:28:12.407Z,50.33
2022-09-20T08:30:40.717Z,49.40
2022-09-20T08:33:09.165Z,49.08
2022-09-20T08:35:38.637Z,48.59
2022-09-20T08:41:18.201Z,48.15
2022-09-20T08:43:51.968Z,47.53
2022-09-20T08:46:23.333Z,47.89
2022-09-20T08:48:52.514Z,47.16
2022-09-20T08:51:23.150Z,47.19
2022-09-20T08:53:53.099Z,47.20
2022-09-20T08:56:22.747Z,46.56
2022-09-20T08:58:51.232Z,46.02
2022-09-20T09:01:24.589Z,45.35
2022-09-20T09:03:57.440Z,45.35
2022-09-20T09:06:25.763Z,45.12
2022-09-20T09:08:57.196Z,45.46
2022-09-20T09:11:25.800Z,43.97
2022-09-20T09:13:57.266Z,44.83
2022-09-20T09:16:33.675Z,44.13
2022-09-20T09:19:22.439Z,43.92
2022-09-20T09:21:50.825Z,44.47
2022-09-20T09:24:20.499Z,42.60
2022-09-20T09:26:48.842Z,44.18
2022-09-20T09:29:22.593Z,41.59
2022-09-20T09:31:52.374Z,41.50
2022-09-20T09:34:31.533Z,41.75
2022-09-20T09:36:59.884Z,41.15
2022-09-20T09:39:30.025Z,42.44
2022-09-20T09:42:01.064Z,40.40
2022-09-20T09:44:32.653Z,40.61
2022-09-20T09:47:01.414Z,39.33
2022-09-20T09:49:34.044Z,40.15
2022-09-20T09:52:08.648Z,38.97
2022-09-20T09:54:47.516Z,39.91
2022-09-20T09:57:26.732Z,39.86
2022-09-20T09:59:55.161Z,39.37
2022-09-20T10:02:23.616Z,40.15
2022-09-20T10:04:56.166Z,39.80
2022-09-20T10:07:39.964Z,40.58
2022-09-20T10:10:26.738Z,39.76
2022-09-20T10:13:13.183Z,40.45
2022-09-20T10:15:51.012Z,40.21
2022-09-20T10:18:30.603Z,41.50
2022-09-20T10:21:06.609Z,42.14
2022-09-20T10:24:01.966Z,41.19
2022-09-20T10:26:35.714Z,40.95
2022-09-20T10:29:12.407Z,41.55
2022-09-20T10:31:52.788Z,43.96
2022-09-20T10:34:35.392Z,45.12
2022-09-20T10:37:10.520Z,44.83
2022-09-20T10:39:41.052Z,44.03
2022-09-20T10:42:47.183Z,44.25
2022-09-20T10:45:43.977Z,45.24
2022-09-20T10:48:28.281Z,44.70
2022-09-20T10:51:15.592Z,44.61
2022-09-20T10:53:49.953Z,44.47
2022-09-20T10:56:18.278Z,44.65
2022-09-20T10:59:05.410Z,44.47
2022-09-20T11:01:33.813Z,44.17
2022-09-20T11:04:17.598Z,43.58
2022-09-20T11:07:06.195Z,43.13
2022-09-20T11:09:38.207Z,43.85
2022-09-20T11:12:15.428Z,43.00
2022-09-20T11:14:50.444Z,43.98
2022-09-20T11:17:22.571Z,43.60
2022-09-20T11:19:50.888Z,43.32
2022-09-20T11:22:31.762Z,43.17
2022-09-20T11:25:03.240Z,43.30
2022-09-20T11:27:37.166Z,42.98
2022-09-20T11:30:10.490Z,42.34
2022-09-20T11:32:44.773Z,41.18
2022-09-20T11:35:16.139Z,42.44
2022-09-20T11:37:52.815Z,42.53
2022-09-20T11:40:36.929Z,42.75
2022-09-20T11:43:08.347Z,42.35
2022-09-20T11:45:38.995Z,40.57
2022-09-20T11:48:18.354Z,39.84
2022-09-20T11:50:49.954Z,40.27
2022-09-20T11:53:21.183Z,41.22
2022-09-20T11:55:59.197Z,41.51
2022-09-20T11:58:28.074Z,42.23
2022-09-20T12:00:58.519Z,42.19
2022-09-20T12:03:38.220Z,41.93
2022-09-20T12:06:24.341Z,42.30
2022-09-20T12:08:52.897Z,42.39
2022-09-20T12:11:29.831Z,43.04
2022-09-20T12:14:04.015Z,42.75
2022-09-20T12:16:35.493Z,42.30
2022-09-20T12:19:07.870Z,42.67
2022-09-20T12:21:55.427Z,42.94
2022-09-20T12:24:24.567Z,42.05
2022-09-20T12:26:56.224Z,42.07
2022-09-20T12:29:24.655Z,43.25
2022-09-20T12:31:54.757Z,42.85
2022-09-20T12:34:26.187Z,42.57
2022-09-20T12:37:00.032Z,42.38
2022-09-20T12:39:35.877Z,42.49
2022-09-20T12:42:10.755Z,42.20
2022-09-20T12:44:45.523Z,41.99
2022-09-20T12:47:13.894Z,42.19
2022-09-20T12:50:04.042Z,41.69
2022-09-20T12:52:50.824Z,41.20
2022-09-20T12:55:31.504Z,41.56
2022-09-20T12:58:02.960Z,41.18
2022-09-20T13:00:38.079Z,40.99
2022-09-20T13:03:28.464Z,40.80
2022-09-20T13:06:06.185Z,41.27
2022-09-20T13:08:53.509Z,39.90
2022-09-20T13:11:28.422Z,40.31
2022-09-20T13:14:06.517Z,40.83
2022-09-20T13:16:53.731Z,40.53
2022-09-20T13:19:29.356Z,39.48
2022-09-20T13:22:00.858Z,39.32
2022-09-20T13:24:35.736Z,39.72
2022-09-20T13:27:11.408Z,39.04
2022-09-20T13:29:42.387Z,38.97
2022-09-20T13:32:26.158Z,38.42
2022-09-20T13:35:07.006Z,39.73
2022-09-20T13:37:47.183Z,39.32
2022-09-20T13:40:23.510Z,39.88
2022-09-20T13:43:12.937Z,39.04
2022-09-20T13:45:42.330Z,38.89
2022-09-20T13:48:10.739Z,39.51
2022-09-20T13:50:44.891Z,38.63
2022-09-20T13:53:28.099Z,38.08
2022-09-20T13:56:09.839Z,38.37
2022-09-20T13:58:38.324Z,37.71
2022-09-20T14:01:20.046Z,38.81
2022-09-20T14:03:48.487Z,39.24
2022-09-20T14:06:16.927Z,38.74
2022-09-20T14:08:48.439Z,38.68
2022-09-20T14:11:24.292Z,38.50
2022-09-20T14:13:54.329Z,38.58
2022-09-20T14:16:24.444Z,37.63
2022-09-20T14:18:53.260Z,37.46
2022-09-20T14:21:23.696Z,37.33
2022-09-20T14:23:58.176Z,38.28
2022-09-20T14:26:28.861Z,38.28
2022-09-20T14:29:18.201Z,39.20
2022-09-20T14:31:47.367Z,37.80
2022-09-20T14:34:15.744Z,37.45
2022-09-20T14:36:44.180Z,37.21
2022-09-20T14:39:15.344Z,38.08
2022-09-20T14:41:44.614Z,36.94
2022-09-20T14:44:32.044Z,37.71
2022-09-20T14:47:12.969Z,38.00
2022-09-20T14:49:43.913Z,37.12
2022-09-20T14:52:27.574Z,37.40
2022-09-20T14:55:03.745Z,36.97
2022-09-20T14:57:32.353Z,37.50
2022-09-20T15:00:05.267Z,36.57
2022-09-20T15:02:35.827Z,36.86
2022-09-20T15:05:04.307Z,37.60
2022-09-20T15:07:33.043Z,37.78
2022-09-20T15:10:01.445Z,38.19
2022-09-20T15:12:29.753Z,38.14
2022-09-20T15:14:59.088Z,36.98
2022-09-20T15:17:27.438Z,36.87
2022-09-20T15:19:55.751Z,36.22
2022-09-20T15:22:24.106Z,36.58
2022-09-20T15:24:52.498Z,36.28
2022-09-20T15:27:23.959Z,36.26
2022-09-20T15:29:54.736Z,36.44
2022-09-20T15:32:23.012Z,36.40
2022-09-20T15:34:51.300Z,36.53
2022-09-20T15:37:19.668Z,37.52
2022-09-20T15:39:47.996Z,37.31
2022-09-20T15:42:16.665Z,37.06
2022-09-20T15:44:45.077Z,37.16
2022-09-20T15:47:16.075Z,37.78
2022-09-20T15:49:46.631Z,38.51
2022-09-20T15:52:15.384Z,37.32
2022-09-20T15:54:43.729Z,36.75
2022-09-20T15:57:12.024Z,36.72
2022-09-20T15:59:40.537Z,37.25
2022-09-20T16:02:09.750Z,36.78
2022-09-20T16:04:38.096Z,35.85
2022-09-20T16:07:07.028Z,35.87
2022-09-20T16:09:36.059Z,36.63
2022-09-20T16:12:04.705Z,36.35
2022-09-20T16:14:33.186Z,36.46
2022-09-20T16:17:02.554Z,35.90
2022-09-20T16:19:30.954Z,36.23
2022-09-20T16:21:59.561Z,35.97
2022-09-20T16:24:32.110Z,36.06
2022-09-20T16:27:01.507Z,36.12
2022-09-20T16:29:30.539Z,36.36
2022-09-20T16:31:59.587Z,36.03
2022-09-20T16:34:32.033Z,35.32
2022-09-20T16:37:03.200Z,36.39
2022-09-20T16:39:31.671Z,35.16
2022-09-20T16:42:04.770Z,35.36
2022-09-20T16:44:33.920Z,35.99
2022-09-20T16:47:03.064Z,36.18
2022-09-20T16:49:31.382Z,35.43
2022-09-20T16:51:59.707Z,36.30
2022-09-20T16:54:31.731Z,36.37
2022-09-20T16:57:01.029Z,36.17
2022-09-20T16:59:29.386Z,36.40
2022-09-20T17:01:57.699Z,36.78
2022-09-20T17:04:26.112Z,36.39
2022-09-20T17:06:55.638Z,37.22
2022-09-20T17:09:23.932Z,36.70
2022-09-20T17:11:53.631Z,36.94
2022-09-20T17:14:22.070Z,37.31
2022-09-20T17:16:50.579Z,37.46
2022-09-20T17:19:20.165Z,37.71
2022-09-20T17:21:50.532Z,37.87
2022-09-20T17:24:23.390Z,38.39
2022-09-20T17:26:53.606Z,38.09
2022-09-20T17:29:23.276Z,38.09
2022-09-20T17:31:55.925Z,38.52
2022-09-20T17:34:28.067Z,38.76
2022-09-20T17:36:57.574Z,38.61
2022-09-20T17:39:25.911Z,38.76
2022-09-20T17:41:54.410Z,39.01
2022-09-20T17:44:22.763Z,39.00
2022-09-20T17:46:53.871Z,38.96
2022-09-20T17:49:23.376Z,39.43
2022-09-20T17:51:54.199Z,39.08
2022-09-20T17:54:24.100Z,39.61
2022-09-20T17:56:55.705Z,39.91
2022-09-20T17:59:24.644Z,40.02
2022-09-20T18:01:54.359Z,40.15
2022-09-20T18:04:25.110Z,40.25
2022-09-20T18:06:54.139Z,40.25
2022-09-20T18:09:25.681Z,40.21
2022-09-20T18:14:26.625Z,40.60
2022-09-20T18:16:57.763Z,41.31
2022-09-20T18:19:32.391Z,40.70
2022-09-20T18:22:01.772Z,40.79
2022-09-20T18:24:30.880Z,40.80
2022-09-20T18:27:01.744Z,40.62
2022-09-20T18:29:33.360Z,40.96
2022-09-20T18:32:02.307Z,41.20
2022-09-20T18:34:33.324Z,41.27
2022-09-20T18:37:03.755Z,41.50
2022-09-20T18:39:33.282Z,41.56
2022-09-20T18:42:02.567Z,41.38
2022-09-20T18:44:33.518Z,41.70
2022-09-20T18:47:03.378Z,41.51
2022-09-20T18:49:32.047Z,41.92
2022-09-20T18:52:01.706Z,42.97
2022-09-20T18:54:33.151Z,44.31
2022-09-20T18:57:01.639Z,45.11
2022-09-20T18:59:30.268Z,45.60
2022-09-20T19:02:09.519Z,45.31
2022-09-20T19:04:53.214Z,44.71
2022-09-20T19:07:27.715Z,44.13
2022-09-20T19:10:09.791Z,43.22
2022-09-20T19:12:39.397Z,43.08
2022-09-20T19:15:10.878Z,43.00
2022-09-20T19:17:48.276Z,43.41
2022-09-20T19:20:19.662Z,43.31
2022-09-20T19:23:01.676Z,42.76
2022-09-20T19:25:40.784Z,43.75
2022-09-20T19:28:10.671Z,44.36
2022-09-20T19:30:40.495Z,44.58
2022-09-20T19:33:14.701Z,43.87
2022-09-20T19:35:49.508Z,44.02
2022-09-20T19:38:35.246Z,45.13
2022-09-20T19:41:04.716Z,45.59
2022-09-20T19:43:44.516Z,45.23
2022-09-20T19:46:20.318Z,45.06
2022-09-20T19:48:56.410Z,45.69
2022-09-20T19:51:26.018Z,45.94
2022-09-20T19:53:55.313Z,45.84
2022-09-20T19:56:27.666Z,46.02
2022-09-20T19:58:56.277Z,45.87
2022-09-20T20:01:25.402Z,45.90
2022-09-20T20:03:54.247Z,46.07
2022-09-20T20:06:34.757Z,45.97
2022-09-20T20:09:14.352Z,46.20
2022-09-20T20:11:57.731Z,46.28
2022-09-20T20:14:32.873Z,46.23
2022-09-20T20:17:19.879Z,46.24
2022-09-20T20:20:05.403Z,46.19
2022-09-20T20:22:33.680Z,46.22
2022-09-20T20:25:02.081Z,46.47
2022-09-20T20:27:32.439Z,46.27
2022-09-20T20:30:00.729Z,46.59
2022-09-20T20:32:29.005Z,46.62
2022-09-20T20:34:57.280Z,46.46
2022-09-20T20:37:28.055Z,46.74
2022-09-20T20:39:56.366Z,46.95
2022-09-20T20:42:24.853Z,45.74
2022-09-20T20:44:53.239Z,45.17
2022-09-20T20:47:21.889Z,44.98
2022-09-20T20:49:53.375Z,45.32
2022-09-20T20:52:21.756Z,44.73
2022-09-20T20:54:50.107Z,44.58
2022-09-20T20:57:18.925Z,44.23
2022-09-20T20:59:47.279Z,44.06
2022-09-20T21:02:15.734Z,44.12
2022-09-20T21:04:44.196Z,44.27
2022-09-20T21:07:12.536Z,44.18
2022-09-20T21:09:40.888Z,44.18
2022-09-20T21:12:09.406Z,44.32
2022-09-20T21:14:38.666Z,44.03
2022-09-20T21:17:07.705Z,43.91
2022-09-20T21:19:36.150Z,43.56
2022-09-20T21:22:04.457Z,43.60
2022-09-20T21:24:32.829Z,43.71
2022-09-20T21:27:01.972Z,43.82
2022-09-20T21:29:30.396Z,43.61
2022-09-20T21:31:58.742Z,44.00
2022-09-20T21:34:27.058Z,43.88
2022-09-20T21:36:55.452Z,44.07
2022-09-20T21:39:23.936Z,44.49
2022-09-20T21:41:52.349Z,44.19
2022-09-20T21:44:20.634Z,44.37
2022-09-20T21:46:49.939Z,44.57
2022-09-20T21:49:18.211Z,44.22
2022-09-20T21:51:46.584Z,44.35
2022-09-20T21:54:15.082Z,44.48
2022-09-20T21:56:43.760Z,44.52
2022-09-20T21:59:12.025Z,46.18
2022-09-20T22:01:40.955Z,46.76
2022-09-20T22:04:10.637Z,47.02
2022-09-20T22:06:40.379Z,46.21
2022-09-20T22:09:10.708Z,45.26
2022-09-20T22:11:41.541Z,44.79
2022-09-20T22:14:12.109Z,44.44
2022-09-20T22:16:41.768Z,44.66
2022-09-20T22:19:13.243Z,44.32
2022-09-20T22:21:43.198Z,44.86
2022-09-20T22:24:12.325Z,46.16
2022-09-20T22:26:42.650Z,45.41
2022-09-20T22:29:11.540Z,45.18
2022-09-20T22:31:46.985Z,44.81
2022-09-20T22:34:19.843Z,44.89
2022-09-20T22:36:48.756Z,44.89
2022-09-20T22:39:17.275Z,45.46
2022-09-20T22:41:47.729Z,45.26
2022-09-20T22:44:16.337Z,46.23
2022-09-20T22:46:44.774Z,47.07
2022-09-20T22:49:13.300Z,46.07
2022-09-20T22:51:41.727Z,47.08
2022-09-20T22:54:10.989Z,46.07
2022-09-20T22:56:41.272Z,46.12
2022-09-20T22:59:11.274Z,45.65
2022-09-20T23:01:46.512Z,45.36
2022-09-20T23:04:19.934Z,45.12
2022-09-20T23:06:51.794Z,45.23
2022-09-20T23:09:21.330Z,45.11
2022-09-20T23:11:50.359Z,44.73
2022-09-20T23:14:20.082Z,44.68
2022-09-20T23:16:48.595Z,44.57
2022-09-20T23:19:17.029Z,44.25
2022-09-20T23:21:45.525Z,44.54
2022-09-20T23:24:14.832Z,44.55
2022-09-20T23:26:43.757Z,44.61
2022-09-20T23:29:13.672Z,44.90
2022-09-20T23:31:46.645Z,44.83
2022-09-20T23:34:15.946Z,44.95
2022-09-20T23:36:45.061Z,44.88
2022-09-20T23:39:13.948Z,44.70
2022-09-20T23:41:45.775Z,44.85
2022-09-20T23:44:16.902Z,44.98
2022-09-20T23:46:45.402Z,44.96
2022-09-20T23:49:13.787Z,45.00
2022-09-20T23:51:42.175Z,45.34
2022-09-20T23:54:10.707Z,45.38
2022-09-20T23:56:40.181Z,45.23
2022-09-20T23:59:08.866Z,45.00
